Time;durP1;ratioP1;P1;durP2;ratioP2;P2;SDS_P1;SDS_P2;PMS_P1;PMS_P2;Temp;Humidity;BMP_temperature;BMP_pressure;BME280_temperature;BME280_humidity;BME280_pressure;Samples;Min_cycle;Max_cycle;Signal;HPM_P1;HPM_P2
2021/04/20 00:00:27;;;;;;;107.40;48.08;;;;;;;5.63;78.36;96952.95;1780857;80;25834;-81
2021/04/20 00:02:56;;;;;;;98.30;45.43;;;;;;;5.62;78.34;96953.14;1773844;80;25854;-81
2021/04/20 00:05:24;;;;;;;106.63;46.13;;;;;;;5.63;78.37;96954.80;1739068;81;27515;-82
2021/04/20 00:07:51;;;;;;;107.32;49.23;;;;;;;5.62;78.44;96953.14;1731210;82;25832;-83
2021/04/20 00:10:21;;;;;;;106.30;46.50;;;;;;;5.62;78.47;96952.63;1752146;80;25746;-82
2021/04/20 00:12:50;;;;;;;105.52;48.87;;;;;;;5.62;78.52;96954.48;1732008;81;26491;-82
2021/04/20 00:15:30;;;;;;;117.35;49.00;;;;;;;5.61;78.56;96947.47;1731965;81;26395;-82
2021/04/20 00:18:01;;;;;;;99.35;45.43;;;;;;;5.59;78.60;96948.98;1731885;81;27552;-82
2021/04/20 00:20:29;;;;;;;97.70;43.20;;;;;;;5.58;78.62;96947.33;1732071;81;26075;-82
2021/04/20 00:22:57;;;;;;;97.62;42.55;;;;;;;5.58;78.65;96943.83;1731890;81;25849;-82
2021/04/20 00:25:25;;;;;;;99.10;43.52;;;;;;;5.57;78.66;96946.17;1731941;81;25914;-82
2021/04/20 00:27:53;;;;;;;139.00;53.63;;;;;;;5.57;78.68;96951.02;1737307;80;25746;-82
2021/04/20 00:30:20;;;;;;;112.92;45.25;;;;;;;5.56;78.68;96941.84;1758105;80;28405;-81
2021/04/20 00:32:48;;;;;;;93.15;41.65;;;;;;;5.54;78.69;96943.40;1757880;80;25808;-81
2021/04/20 00:35:16;;;;;;;86.97;41.60;;;;;;;5.51;78.71;96937.59;1757939;80;25843;-81
2021/04/20 00:37:43;;;;;;;95.57;41.65;;;;;;;5.49;78.75;96943.64;1757856;80;26949;-81
2021/04/20 00:40:15;;;;;;;99.22;43.33;;;;;;;5.49;78.81;96943.13;1758003;80;25833;-82
2021/04/20 00:42:57;;;;;;;82.17;39.15;;;;;;;5.49;78.86;96943.64;1757958;79;27338;-82
2021/04/20 00:45:29;;;;;;;87.75;40.08;;;;;;;5.49;78.93;96940.45;1802644;77;25724;-82
2021/04/20 00:47:57;;;;;;;86.85;38.50;;;;;;;5.49;78.91;96940.96;1831820;77;25859;-82
2021/04/20 00:50:32;;;;;;;81.12;36.90;;;;;;;5.48;78.96;96937.45;1809447;77;25721;-82
2021/04/20 00:53:00;;;;;;;78.20;34.90;;;;;;;5.48;78.98;96941.98;1802679;77;25722;-82
2021/04/20 00:55:28;;;;;;;71.35;34.55;;;;;;;5.50;78.97;96935.42;1800984;77;28477;-81
2021/04/20 00:57:55;;;;;;;79.12;35.92;;;;;;;5.50;78.91;96934.08;1809234;77;26200;-82
2021/04/20 01:00:27;;;;;;;66.35;32.30;;;;;;;5.50;78.86;96935.92;1809525;77;25807;-82
2021/04/20 01:02:55;;;;;;;79.25;37.13;;;;;;;5.49;78.85;96931.59;1815880;77;26257;-82
2021/04/20 01:05:27;;;;;;;77.30;37.73;;;;;;;5.47;78.83;96940.31;1814612;77;25764;-81
2021/04/20 01:08:10;;;;;;;81.03;37.20;;;;;;;5.47;78.83;96937.64;1806201;77;27495;-81
2021/04/20 01:10:45;;;;;;;79.95;36.08;;;;;;;5.46;78.89;96937.31;1809395;77;25379;-81
2021/04/20 01:13:13;;;;;;;73.20;34.63;;;;;;;5.39;78.84;96933.25;1832944;77;25309;-81
2021/04/20 01:15:46;;;;;;;83.85;36.20;;;;;;;5.36;78.88;96936.30;1797338;77;25672;-81
2021/04/20 01:18:25;;;;;;;72.60;33.78;;;;;;;5.36;78.94;96933.62;1830547;77;25746;-81
2021/04/20 01:21:05;;;;;;;84.52;37.17;;;;;;;5.35;78.98;96926.10;1806562;77;27542;-80
2021/04/20 01:24:00;;;;;;;90.95;39.53;;;;;;;5.35;79.01;96932.80;1793736;77;26289;-80
2021/04/20 01:26:35;;;;;;;88.87;38.63;;;;;;;5.35;79.04;96931.96;1823334;77;25615;-79
2021/04/20 01:29:05;;;;;;;94.95;39.13;;;;;;;5.35;79.07;96932.80;1812001;77;25901;-79
2021/04/20 01:31:35;;;;;;;87.37;38.35;;;;;;;5.35;79.14;96931.45;1815213;77;26030;-79
2021/04/20 01:34:04;;;;;;;88.40;38.90;;;;;;;5.36;79.17;96933.62;1796182;77;27477;-79
2021/04/20 01:36:32;;;;;;;91.32;39.08;;;;;;;5.35;79.18;96931.45;1808740;77;25878;-79
2021/04/20 01:39:00;;;;;;;87.25;38.08;;;;;;;5.36;79.24;96938.47;1791520;77;25780;-79
2021/04/20 01:41:29;;;;;;;78.00;35.33;;;;;;;5.36;79.24;96935.79;1791593;77;25681;-80
2021/04/20 01:43:58;;;;;;;84.83;37.73;;;;;;;5.34;79.20;96936.48;1802907;77;25704;-80
2021/04/20 01:46:26;;;;;;;86.50;37.85;;;;;;;5.32;79.20;96943.87;1796158;77;28774;-80
2021/04/20 01:48:55;;;;;;;85.10;35.17;;;;;;;5.31;79.27;96943.55;1793219;77;25715;-80
2021/04/20 01:51:26;;;;;;;90.83;35.68;;;;;;;5.33;79.29;96942.02;1794692;77;25781;-80
2021/04/20 01:53:54;;;;;;;87.53;36.10;;;;;;;5.34;79.36;96941.84;1794490;77;26244;-80
2021/04/20 01:56:21;;;;;;;77.60;34.05;;;;;;;5.34;79.36;96940.50;1825137;77;25771;-80
2021/04/20 01:58:50;;;;;;;81.02;32.98;;;;;;;5.35;79.34;96942.16;1818505;77;27468;-80
2021/04/20 02:01:24;;;;;;;83.35;35.13;;;;;;;5.35;79.35;96942.16;1819198;77;25829;-80
2021/04/20 02:03:52;;;;;;;85.00;33.08;;;;;;;5.34;79.35;96939.67;1842395;77;25796;-81
2021/04/20 02:06:24;;;;;;;87.72;34.60;;;;;;;5.33;79.38;96940.69;1802247;77;26446;-81
2021/04/20 02:08:55;;;;;;;82.88;35.08;;;;;;;5.33;79.42;96938.01;1809524;77;25873;-83
2021/04/20 02:11:24;;;;;;;95.10;34.65;;;;;;;5.32;79.49;96934.50;1809150;77;27560;-80
2021/04/20 02:13:52;;;;;;;114.40;40.40;;;;;;;5.33;79.57;96936.16;1794683;77;26330;-80
2021/04/20 02:16:21;;;;;;;96.17;39.80;;;;;;;5.33;79.61;96936.16;1816100;77;25804;-80
2021/04/20 02:18:53;;;;;;;85.20;35.73;;;;;;;5.30;79.64;96936.56;1825211;77;25756;-80
2021/04/20 02:21:22;;;;;;;92.80;37.50;;;;;;;5.29;79.67;96933.56;1808111;77;26512;-80
2021/04/20 02:23:51;;;;;;;86.10;36.08;;;;;;;5.29;79.69;96933.56;1809370;77;27495;-81
2021/04/20 02:26:31;;;;;;;81.37;34.92;;;;;;;5.29;79.73;96935.41;1809402;77;25721;-80
2021/04/20 02:29:01;;;;;;;83.25;36.25;;;;;;;5.31;79.76;96931.50;1829643;77;25763;-80
2021/04/20 02:31:29;;;;;;;76.77;34.90;;;;;;;5.32;79.80;96931.83;1827918;77;25863;-81
2021/04/20 02:33:57;;;;;;;78.20;33.50;;;;;;;5.35;79.77;96935.98;1818784;77;25804;-81
2021/04/20 02:36:25;;;;;;;77.75;34.45;;;;;;;5.33;79.75;96933.48;1825702;77;28657;-81
2021/04/20 02:38:53;;;;;;;76.37;33.15;;;;;;;5.33;79.75;96930.81;1825517;77;26130;-80
2021/04/20 02:41:21;;;;;;;71.60;33.42;;;;;;;5.34;79.78;96936.48;1823986;77;25672;-80
2021/04/20 02:43:48;;;;;;;75.95;32.90;;;;;;;5.37;79.77;96935.28;1820809;77;25729;-80
2021/04/20 02:46:17;;;;;;;78.80;32.83;;;;;;;5.37;79.72;96932.09;1818028;77;25785;-80
2021/04/20 02:48:45;;;;;;;66.47;30.37;;;;;;;5.36;79.70;96923.75;1818179;77;28385;-80
2021/04/20 02:51:14;;;;;;;70.12;31.95;;;;;;;5.36;79.69;96933.11;1823064;77;25347;-81
2021/04/20 02:53:44;;;;;;;72.20;31.40;;;;;;;5.30;79.65;96928.53;1829404;77;25678;-80
2021/04/20 02:56:18;;;;;;;77.30;32.65;;;;;;;5.31;79.71;96921.34;1844857;77;25728;-80
2021/04/20 02:58:46;;;;;;;72.67;30.75;;;;;;;5.28;79.72;96926.55;1842489;77;26432;-80
2021/04/20 03:01:24;;;;;;;64.55;29.98;;;;;;;5.28;79.73;96927.06;1830576;77;27546;-80
2021/04/20 03:03:52;;;;;;;62.45;27.80;;;;;;;5.27;79.77;96928.91;1818076;77;25733;-80
2021/04/20 03:06:20;;;;;;;62.95;27.05;;;;;;;5.17;79.68;96927.05;1818153;77;25773;-81
2021/04/20 03:08:49;;;;;;;64.20;29.15;;;;;;;5.15;79.76;96930.93;1802026;77;25785;-81
2021/04/20 03:11:37;;;;;;;59.75;26.95;;;;;;;5.14;79.83;96924.75;1817965;77;25937;-80
2021/04/20 03:14:06;;;;;;;66.95;26.57;;;;;;;5.15;79.86;96921.05;1832145;77;28508;-80
2021/04/20 03:16:35;;;;;;;69.42;29.45;;;;;;;5.17;79.90;96925.72;1818114;77;26469;-80
2021/04/20 03:19:06;;;;;;;72.15;29.57;;;;;;;5.18;79.92;96921.20;1818143;77;25783;-80
2021/04/20 03:21:35;;;;;;;66.00;29.52;;;;;;;5.19;79.93;96915.66;1786665;78;26027;-80
2021/04/20 03:24:04;;;;;;;73.87;29.85;;;;;;;5.21;79.96;96918.12;1831682;77;25792;-80
2021/04/20 03:26:41;;;;;;;79.75;33.05;;;;;;;5.18;79.93;96918.01;1847643;77;27544;-80
2021/04/20 03:29:11;;;;;;;98.55;37.55;;;;;;;5.14;79.99;96920.73;1831122;77;25730;-80
2021/04/20 03:31:41;;;;;;;95.22;36.33;;;;;;;5.14;80.11;96919.39;1842688;77;25779;-80
2021/04/20 03:37:16;;;;;;;85.20;38.80;;;;;;;5.23;80.17;96919.59;1850853;74;27912;-80
2021/04/20 03:39:47;;;;;;;74.00;29.98;;;;;;;5.28;79.79;96917.70;1824304;77;25893;-81
2021/04/20 03:42:22;;;;;;;73.60;30.27;;;;;;;5.30;79.89;96922.36;1827095;77;28478;-81
2021/04/20 03:44:57;;;;;;;74.62;31.15;;;;;;;5.29;79.99;96921.52;1841681;75;25800;-81
2021/04/20 03:47:45;;;;;;;83.95;31.15;;;;;;;5.27;80.03;96918.20;1823740;77;25730;-81
2021/04/20 03:50:26;;;;;;;84.28;33.02;;;;;;;5.28;80.08;96920.38;1828170;75;25873;-81
2021/04/20 03:53:03;;;;;;;94.95;36.93;;;;;;;5.29;80.14;96921.52;1821916;77;25795;-81
2021/04/20 03:55:33;;;;;;;84.07;34.90;;;;;;;5.28;80.19;96919.86;1801002;78;28470;-81
2021/04/20 03:58:02;;;;;;;79.00;33.70;;;;;;;5.30;80.23;96921.02;1836713;75;26313;-82
2021/04/20 04:00:30;;;;;;;87.62;35.83;;;;;;;5.30;80.21;96927.70;1831275;75;25839;-81
2021/04/20 04:02:59;;;;;;;69.30;29.85;;;;;;;5.27;80.20;96927.56;1794149;77;25726;-81
2021/04/20 04:05:32;;;;;;;68.57;29.65;;;;;;;5.25;80.19;96923.42;1759962;80;25706;-82
2021/04/20 04:08:01;;;;;;;61.35;26.75;;;;;;;5.21;80.16;96920.28;1762033;79;28707;-81
2021/04/20 04:10:33;;;;;;;61.73;26.52;;;;;;;5.21;80.19;96920.79;1763552;79;25762;-81
2021/04/20 04:13:04;;;;;;;59.33;26.57;;;;;;;5.17;80.14;96924.38;1766620;79;25699;-80
2021/04/20 04:15:35;;;;;;;62.10;28.05;;;;;;;5.18;80.19;96920.69;1781407;79;25782;-80
2021/04/20 04:18:15;;;;;;;66.47;28.52;;;;;;;5.19;80.20;96910.30;1763829;79;25824;-80
2021/04/20 04:20:42;;;;;;;61.65;27.07;;;;;;;5.22;80.23;96909.91;1766296;79;28465;-80
2021/04/20 04:23:18;;;;;;;70.08;30.27;;;;;;;5.18;80.24;96907.31;1767474;79;26060;-80
2021/04/20 04:25:57;;;;;;;77.17;31.25;;;;;;;5.12;80.25;96912.06;1763490;79;25782;-80
2021/04/20 04:28:25;;;;;;;81.82;32.40;;;;;;;5.10;80.37;96910.59;1763496;79;25756;-80
2021/04/20 04:30:53;;;;;;;74.07;30.95;;;;;;;5.07;80.52;96903.80;1785605;79;25908;-80
2021/04/20 04:33:20;;;;;;;71.87;31.23;;;;;;;5.03;80.53;96910.02;1776986;79;28526;-80
2021/04/20 04:35:50;;;;;;;72.15;32.78;;;;;;;5.01;80.53;96915.23;1771170;79;25862;-80
2021/04/20 04:38:19;;;;;;;84.80;32.98;;;;;;;5.04;80.62;96916.20;1763447;79;25870;-80
2021/04/20 04:40:47;;;;;;;85.38;34.88;;;;;;;5.09;80.73;96912.44;1785175;79;25820;-81
2021/04/20 04:43:15;;;;;;;87.10;34.92;;;;;;;5.12;80.73;96914.73;1763424;79;25695;-80
2021/04/20 04:45:43;;;;;;;89.75;37.03;;;;;;;5.15;80.72;96915.70;1783227;79;27700;-81
2021/04/20 04:48:12;;;;;;;91.12;39.08;;;;;;;5.19;80.76;96914.83;1786697;79;25718;-80
2021/04/20 04:50:42;;;;;;;75.10;35.08;;;;;;;5.20;80.77;96911.94;1762783;79;25814;-80
2021/04/20 04:53:12;;;;;;;76.45;35.75;;;;;;;5.24;80.75;96918.58;1762635;79;26486;-80
2021/04/20 04:55:39;;;;;;;76.67;33.50;;;;;;;5.27;80.70;96920.88;1762615;79;25752;-80
2021/04/20 04:58:08;;;;;;;67.95;32.35;;;;;;;5.29;80.68;96920.19;1778617;79;27485;-80
2021/04/20 05:00:36;;;;;;;70.03;33.00;;;;;;;5.31;80.66;96915.45;1768349;79;26084;-81
2021/04/20 05:03:07;;;;;;;111.22;45.00;;;;;;;5.33;80.69;96914.75;1778154;79;26180;-81
2021/04/20 05:05:40;;;;;;;107.03;47.00;;;;;;;5.38;80.72;96921.72;1768266;79;25676;-81
2021/04/20 05:08:09;;;;;;;99.67;44.38;;;;;;;5.43;80.75;96919.81;1777586;79;25768;-81
2021/04/20 05:10:37;;;;;;;95.83;44.00;;;;;;;5.46;80.71;96918.07;1749631;79;28501;-81
2021/04/20 05:13:07;;;;;;;98.17;43.38;;;;;;;5.51;80.71;96917.51;1762817;79;25858;-81
2021/04/20 05:15:35;;;;;;;66.22;33.40;;;;;;;5.56;80.76;96911.88;1762892;79;25735;-81
2021/04/20 05:18:03;;;;;;;56.45;30.12;;;;;;;5.62;80.73;96912.98;1773853;79;26257;-81
2021/04/20 05:20:30;;;;;;;67.60;34.05;;;;;;;5.64;80.60;96916.30;1794275;79;25300;-81
2021/04/20 05:22:58;;;;;;;79.03;35.03;;;;;;;5.68;80.62;96914.87;1794188;79;27609;-81
2021/04/20 05:25:25;;;;;;;73.72;34.80;;;;;;;5.73;80.60;96919.15;1794179;78;25794;-81
2021/04/20 05:27:53;;;;;;;82.00;37.23;;;;;;;5.76;80.55;96915.59;1772009;79;25875;-81
2021/04/20 05:30:21;;;;;;;92.82;42.10;;;;;;;5.77;80.46;96916.42;1778211;79;25290;-81
2021/04/20 05:32:52;;;;;;;84.67;37.67;;;;;;;5.80;80.52;96916.84;1766917;79;25752;-81
2021/04/20 05:35:22;;;;;;;83.37;40.12;;;;;;;5.87;80.50;96919.59;1779669;79;27487;-81
2021/04/20 05:37:50;;;;;;;55.78;30.00;;;;;;;5.92;80.45;96924.38;1784896;79;26283;-81
2021/04/20 05:40:26;;;;;;;60.65;30.60;;;;;;;5.99;80.41;96924.77;1775715;79;25783;-81
2021/04/20 05:42:57;;;;;;;64.97;31.40;;;;;;;6.06;80.31;96926.97;1785750;79;26268;-81
2021/04/20 05:45:25;;;;;;;57.83;30.25;;;;;;;6.08;80.15;96922.25;1781858;79;25765;-81
2021/04/20 05:47:54;;;;;;;55.40;29.37;;;;;;;6.12;80.10;96928.06;1787331;78;27487;-81
2021/04/20 05:50:27;;;;;;;49.73;26.15;;;;;;;6.19;80.05;96924.07;1779660;79;26408;-80
2021/04/20 05:52:55;;;;;;;42.55;24.35;;;;;;;6.23;79.93;96926.69;1772255;79;26301;-81
2021/04/20 05:55:23;;;;;;;47.60;25.55;;;;;;;6.23;79.82;96929.37;1762645;79;25814;-81
2021/04/20 05:57:53;;;;;;;47.48;26.82;;;;;;;6.23;79.79;96927.52;1782821;79;26498;-81
2021/04/20 06:00:24;;;;;;;48.95;27.87;;;;;;;6.27;79.80;96928.80;1772078;79;27563;-81
2021/04/20 06:02:55;;;;;;;53.02;29.60;;;;;;;6.23;79.64;96923.50;1775501;79;26517;-81
2021/04/20 06:05:29;;;;;;;51.70;27.87;;;;;;;6.24;79.73;96931.03;1770429;79;25302;-81
2021/04/20 06:08:03;;;;;;;51.68;28.77;;;;;;;6.27;79.77;96926.11;1794291;79;26107;-81
2021/04/20 06:10:32;;;;;;;54.95;28.23;;;;;;;6.34;79.77;96931.50;1752467;79;25765;-81
2021/04/20 06:12:59;;;;;;;56.53;31.42;;;;;;;6.39;79.71;96933.09;1776430;79;27550;-81
2021/04/20 06:15:29;;;;;;;51.05;28.77;;;;;;;6.44;79.62;96931.98;1762747;79;25752;-81
2021/04/20 06:17:56;;;;;;;50.73;27.87;;;;;;;6.49;79.52;96935.73;1762858;79;25715;-81
2021/04/20 06:20:25;;;;;;;52.30;32.03;;;;;;;6.55;79.43;96928.74;1766252;78;25827;-81
2021/04/20 06:22:57;;;;;;;49.08;31.05;;;;;;;6.53;79.25;96933.47;1780599;79;25695;-81
2021/04/20 06:25:25;;;;;;;51.75;32.48;;;;;;;6.56;79.23;96933.08;1787298;79;28438;-81
2021/04/20 06:27:54;;;;;;;45.48;28.80;;;;;;;6.54;79.18;96935.13;1794084;79;26048;-80
2021/04/20 06:30:22;;;;;;;45.73;27.42;;;;;;;6.55;79.16;96940.81;1772102;79;25760;-80
2021/04/20 06:32:51;;;;;;;39.63;24.65;;;;;;;6.59;79.14;96934.03;1783833;79;26131;-81
2021/04/20 06:35:22;;;;;;;42.65;26.00;;;;;;;6.67;79.11;96934.38;1783323;79;26331;-80
2021/04/20 06:37:52;;;;;;;42.75;25.55;;;;;;;6.67;78.90;96935.20;1772005;79;27499;-80
2021/04/20 06:40:34;;;;;;;40.08;25.40;;;;;;;6.65;78.80;96933.23;1794190;79;26198;-80
2021/04/20 06:43:10;;;;;;;47.48;27.30;;;;;;;6.65;78.76;96933.23;1772502;79;25700;-80
2021/04/20 06:46:01;;;;;;;50.92;28.38;;;;;;;6.69;78.83;96935.02;1771429;79;25297;-81
2021/04/20 06:48:48;;;;;;;48.00;27.55;;;;;;;6.75;78.82;96936.91;1762352;79;25748;-80
2021/04/20 06:51:42;;;;;;;69.20;36.15;;;;;;;6.75;78.70;96937.74;1768853;79;28453;-81
2021/04/20 06:54:27;;;;;;;64.05;35.70;;;;;;;6.78;78.63;96937.32;1762655;79;25307;-81
2021/04/20 06:57:18;;;;;;;61.18;33.40;;;;;;;6.79;78.48;96940.84;1761992;79;25796;-80
2021/04/20 07:00:16;;;;;;;50.55;28.60;;;;;;;6.83;78.50;96929.52;1762746;79;25898;-80
2021/04/20 07:03:28;;;;;;;51.90;27.93;;;;;;;6.92;78.46;96932.02;1762812;79;25810;-81
2021/04/20 07:06:33;;;;;;;44.53;26.70;;;;;;;7.03;78.48;96935.47;1762857;79;27495;-80
2021/04/20 07:09:10;;;;;;;41.28;26.45;;;;;;;7.02;78.18;96925.25;1762716;79;25787;-81
2021/04/20 07:11:43;;;;;;;42.33;25.77;;;;;;;7.03;78.21;96931.45;1773804;79;25738;-80
2021/04/20 07:14:28;;;;;;;47.78;30.25;;;;;;;7.11;78.26;96929.44;1783261;79;25703;-80
2021/04/20 07:17:13;;;;;;;46.92;29.60;;;;;;;7.28;78.36;96927.20;1762753;79;25591;-81
2021/04/20 07:19:58;;;;;;;52.00;32.10;;;;;;;7.42;78.18;96927.55;1762866;79;27510;-80
2021/04/20 07:23:01;;;;;;;50.38;30.48;;;;;;;7.50;77.93;96927.36;1762643;79;26066;-81
2021/04/20 07:25:54;;;;;;;54.03;32.13;;;;;;;7.64;78.04;96924.69;1762762;79;25713;-81
2021/04/20 07:29:02;;;;;;;56.83;32.58;;;;;;;7.77;77.91;96929.57;1762407;79;25834;-81
2021/04/20 07:32:06;;;;;;;60.35;34.15;;;;;;;7.93;77.86;96929.70;1762812;79;25782;-81
2021/04/20 07:35:03;;;;;;;54.75;33.35;;;;;;;8.07;77.80;96932.70;1782222;79;27572;-80
2021/04/20 07:37:47;;;;;;;50.88;31.37;;;;;;;8.33;77.93;96933.76;1773554;79;25689;-81
2021/04/20 07:40:39;;;;;;;52.30;33.33;;;;;;;8.55;77.47;96939.20;1778880;79;25753;-81
2021/04/20 07:43:30;;;;;;;50.63;29.50;;;;;;;8.68;77.15;96932.97;1765917;79;25649;-81
2021/04/20 07:46:15;;;;;;;48.08;30.60;;;;;;;8.90;77.00;96933.83;1792204;79;25744;-81
2021/04/20 07:48:54;;;;;;;46.55;30.40;;;;;;;8.99;76.54;96935.23;1778962;79;27297;-81
2021/04/20 07:51:39;;;;;;;47.15;30.00;;;;;;;9.07;76.20;96936.03;1787907;79;25761;-80
2021/04/20 07:54:14;;;;;;;45.83;28.85;;;;;;;9.16;76.22;96938.81;1765567;79;25681;-81
2021/04/20 07:56:59;;;;;;;45.15;30.52;;;;;;;9.25;75.98;96930.79;1798133;78;25782;-81
2021/04/20 07:59:52;;;;;;;46.15;29.37;;;;;;;9.35;75.95;96927.11;1785484;79;25745;-81
2021/04/20 08:02:28;;;;;;;43.98;28.77;;;;;;;9.47;75.79;96921.86;1780294;79;28469;-81
2021/04/20 08:05:10;;;;;;;46.02;30.00;;;;;;;9.77;75.63;96922.11;1781112;77;25886;-81
2021/04/20 08:08:03;;;;;;;51.83;29.90;;;;;;;10.04;75.52;96919.49;1792059;77;25789;-81
2021/04/20 08:10:40;;;;;;;;;;;;;;;10.38;74.92;96923.62;1760738;79;25797;-81
2021/04/20 08:13:39;;;;;;;44.13;28.12;;;;;;;10.28;74.10;96920.57;1778924;80;25775;-81
2021/04/20 08:16:30;;;;;;;45.23;28.65;;;;;;;10.34;74.26;96923.75;1772141;79;27501;-81
2021/04/20 08:19:03;;;;;;;44.75;28.47;;;;;;;10.42;73.98;96921.58;1804933;78;25902;-81
2021/04/20 08:21:33;;;;;;;45.58;31.02;;;;;;;10.48;73.65;96923.93;1758357;80;25826;-81
2021/04/20 08:24:05;;;;;;;44.40;29.63;;;;;;;10.64;73.78;96915.76;1763247;79;26559;-81
2021/04/20 08:26:44;;;;;;;44.48;30.62;;;;;;;10.70;73.29;96917.58;1774896;78;25795;-81
2021/04/20 08:32:05;;;;;;;48.15;30.20;;;;;;;10.83;73.05;96913.39;1872934;76;25739;-80
2021/04/20 08:35:01;;;;;;;41.48;28.60;;;;;;;10.82;73.11;96914.44;1852386;77;25784;-80
2021/04/20 08:37:43;;;;;;;40.60;28.80;;;;;;;10.85;73.34;96915.34;1820270;77;27513;-80
2021/04/20 08:40:31;;;;;;;46.20;29.70;;;;;;;11.10;73.44;96917.44;1849573;77;25893;-80
2021/04/20 08:43:38;;;;;;;41.48;27.75;;;;;;;11.43;73.26;96910.78;1828572;77;25893;-82
2021/04/20 08:46:23;;;;;;;37.48;27.73;;;;;;;11.72;72.35;96909.93;1826045;77;25797;-83
2021/04/20 08:49:14;;;;;;;41.13;28.30;;;;;;;12.14;72.19;96914.84;1818665;77;25725;-82
2021/04/20 08:51:54;;;;;;;35.28;27.17;;;;;;;12.44;71.70;96909.31;1806457;77;28368;-82
2021/04/20 08:54:54;;;;;;;34.13;26.48;;;;;;;13.01;71.64;96913.59;1852257;77;25885;-81
2021/04/20 08:57:38;;;;;;;34.35;24.82;;;;;;;13.58;70.99;96902.83;1852270;77;25870;-82
2021/04/20 09:00:17;;;;;;;33.53;24.82;;;;;;;14.26;70.18;96896.42;1825380;77;25376;-82
2021/04/20 09:02:56;;;;;;;34.63;26.17;;;;;;;14.75;69.61;96887.44;1806495;77;25738;-81
2021/04/20 09:05:31;;;;;;;34.90;24.52;;;;;;;15.20;68.65;96894.58;1818723;77;27485;-82
2021/04/20 09:08:13;;;;;;;33.95;25.82;;;;;;;15.23;67.77;96894.05;1818722;77;25826;-82
2021/04/20 09:11:10;;;;;;;29.35;22.90;;;;;;;15.46;66.66;96881.53;1813716;77;25779;-82
2021/04/20 09:13:58;;;;;;;30.90;23.75;;;;;;;15.71;66.60;96876.94;1837016;77;26282;-82
2021/04/20 09:16:34;;;;;;;30.40;22.27;;;;;;;15.83;65.81;96880.33;1836117;77;25833;-82
2021/04/20 09:19:03;;;;;;;28.87;22.62;;;;;;;15.88;64.95;96868.68;1841017;77;27497;-82
2021/04/20 09:21:51;;;;;;;32.88;23.60;;;;;;;15.72;64.13;96873.14;1818555;77;25762;-82
2021/04/20 09:24:21;;;;;;;29.87;20.92;;;;;;;15.87;64.53;96869.76;1796056;77;25417;-82
2021/04/20 09:27:11;;;;;;;26.45;19.70;;;;;;;16.28;64.52;96866.86;1818745;77;25846;-83
2021/04/20 09:29:58;;;;;;;28.83;19.67;;;;;;;16.48;63.65;96866.17;1834314;76;25983;-81
2021/04/20 09:32:31;;;;;;;24.00;19.35;;;;;;;16.71;62.76;96859.55;1796485;77;27483;-81
2021/04/20 09:34:59;;;;;;;25.75;19.55;;;;;;;16.97;62.32;96866.78;1818692;77;25802;-82
2021/04/20 09:37:29;;;;;;;25.25;19.42;;;;;;;17.05;61.89;96862.72;1833864;77;25782;-81
2021/04/20 09:39:57;;;;;;;25.57;19.75;;;;;;;16.73;60.97;96868.28;1816573;77;25739;-81
2021/04/20 09:42:27;;;;;;;25.95;19.52;;;;;;;16.32;61.10;96860.33;1851921;77;25824;-81
2021/04/20 09:45:14;;;;;;;28.20;21.15;;;;;;;15.77;61.04;96862.86;1811507;77;27555;-82
2021/04/20 09:48:07;;;;;;;27.73;21.48;;;;;;;14.99;61.49;96858.67;1812593;77;25803;-81
2021/04/20 09:50:56;;;;;;;24.57;19.70;;;;;;;14.78;62.37;96859.77;1818230;77;26657;-81
2021/04/20 09:53:59;;;;;;;27.40;20.62;;;;;;;14.52;62.37;96860.48;1818194;77;25658;-80
2021/04/20 09:56:56;;;;;;;27.65;20.40;;;;;;;14.43;62.98;96857.91;1818166;77;25789;-81
2021/04/20 09:59:45;;;;;;;24.30;17.90;;;;;;;14.30;63.06;96859.58;1817483;77;27494;-82
2021/04/20 10:02:52;;;;;;;25.88;18.23;;;;;;;14.11;63.10;96856.30;1810719;77;25644;-82
2021/04/20 10:05:52;;;;;;;29.10;18.27;;;;;;;13.93;63.43;96856.53;1811589;77;25897;-81
2021/04/20 10:08:45;;;;;;;24.27;17.73;;;;;;;13.89;63.20;96856.19;1812583;77;26181;-82
2021/04/20 10:11:44;;;;;;;24.95;17.57;;;;;;;13.79;63.04;96847.06;1836045;77;27023;-82
2021/04/20 10:14:47;;;;;;;23.10;16.50;;;;;;;13.72;63.22;96847.77;1797802;77;27558;-82
2021/04/20 10:17:32;;;;;;;22.62;16.37;;;;;;;13.70;63.25;96843.94;1778893;78;25977;-81
2021/04/20 10:20:10;;;;;;;31.52;20.23;;;;;;;13.74;62.88;96844.28;1821559;77;25701;-81
2021/04/20 10:22:53;;;;;;;24.05;17.07;;;;;;;13.72;62.82;96844.52;1832801;77;25777;-81
2021/04/20 10:25:49;;;;;;;18.55;14.98;;;;;;;13.75;62.73;96840.50;1834186;77;25780;-80
2021/04/20 10:28:36;;;;;;;17.82;14.60;;;;;;;13.92;62.53;96832.64;1830627;77;27696;-81
2021/04/20 10:31:15;;;;;;;18.25;13.88;;;;;;;14.25;62.56;96836.44;1818009;77;26196;-81
2021/04/20 10:33:44;;;;;;;17.20;14.05;;;;;;;14.72;62.72;96833.62;1818234;77;26296;-81
2021/04/20 10:36:13;;;;;;;19.07;13.60;;;;;;;14.83;61.26;96840.55;1823649;77;25770;-82
2021/04/20 10:38:41;;;;;;;17.10;12.55;;;;;;;14.71;60.76;96836.05;1830292;77;26389;-81
2021/04/20 10:41:33;;;;;;;15.18;11.78;;;;;;;14.99;61.32;96824.16;1818137;77;27525;-81
2021/04/20 10:44:03;;;;;;;18.65;12.80;;;;;;;15.49;60.88;96823.91;1803051;79;25737;-81
2021/04/20 10:46:31;;;;;;;15.20;11.35;;;;;;;16.11;60.13;96822.06;1811598;79;25717;-82
2021/04/20 10:49:00;;;;;;;14.63;10.63;;;;;;;16.61;59.51;96818.05;1811712;79;25858;-82
2021/04/20 10:51:40;;;;;;;14.83;9.78;;;;;;;16.92;59.09;96814.41;1810164;79;26005;-82
2021/04/20 10:54:12;;;;;;;16.00;10.40;;;;;;;17.10;58.69;96813.67;1811557;79;27468;-82
2021/04/20 10:56:51;;;;;;;13.30;9.20;;;;;;;17.39;57.83;96809.96;1811355;78;25839;-81
2021/04/20 10:59:29;;;;;;;15.58;10.63;;;;;;;17.76;56.76;96809.76;1811219;79;25966;-82
2021/04/20 11:02:04;;;;;;;15.45;12.10;;;;;;;18.08;56.49;96810.34;1811341;79;26258;-82
2021/04/20 11:04:36;;;;;;;10.45;9.08;;;;;;;18.41;56.23;96798.56;1810736;79;25733;-81
2021/04/20 11:07:19;;;;;;;;;;;;;;;18.59;55.07;96798.02;1814514;79;28723;-81
2021/04/20 11:09:49;;;;;;;12.28;8.65;;;;;;;18.72;53.00;96789.79;1811793;79;25788;-81
2021/04/20 11:12:19;;;;;;;9.88;8.48;;;;;;;18.92;53.43;96791.90;1783329;79;25461;-81
2021/04/20 11:14:51;;;;;;;11.93;8.40;;;;;;;18.94;52.61;96786.97;1811023;79;26128;-81
2021/04/20 11:17:46;;;;;;;9.85;8.08;;;;;;;19.16;52.96;96777.58;1812044;79;25662;-82
2021/04/20 11:20:19;;;;;;;10.38;8.68;;;;;;;19.48;53.08;96784.77;1835114;77;27493;-81
2021/04/20 11:23:10;;;;;;;11.53;9.30;;;;;;;19.71;51.69;96777.25;1780319;77;26141;-81
2021/04/20 11:25:55;;;;;;;8.93;8.03;;;;;;;19.81;50.83;96778.28;1779920;79;25826;-81
2021/04/20 11:28:53;;;;;;;11.68;9.15;;;;;;;19.67;50.58;96778.13;1782323;79;26287;-81
2021/04/20 11:31:28;;;;;;;12.88;9.53;;;;;;;19.44;49.69;96779.62;1772623;79;25707;-81
2021/04/20 11:34:21;;;;;;;14.45;10.28;;;;;;;18.83;49.48;96781.83;1760275;79;27462;-81
2021/04/20 11:36:56;;;;;;;12.13;9.15;;;;;;;18.30;49.47;96780.82;1809790;77;25816;-81
2021/04/20 11:39:29;;;;;;;12.10;10.13;;;;;;;17.80;50.53;96786.30;1809524;77;25925;-81
2021/04/20 11:42:04;;;;;;;12.95;9.93;;;;;;;17.67;50.71;96775.37;1822509;77;25951;-81
2021/04/20 11:44:54;;;;;;;10.98;8.80;;;;;;;17.53;50.47;96776.41;1810706;77;25699;-81
2021/04/20 11:47:22;;;;;;;12.15;8.58;;;;;;;17.36;50.19;96773.66;1809303;77;27644;-81
2021/04/20 11:49:57;;;;;;;11.40;9.18;;;;;;;17.19;49.79;96771.16;1794416;77;25824;-81
2021/04/20 11:52:32;;;;;;;10.30;7.87;;;;;;;17.22;50.12;96763.80;1821636;77;25798;-81
2021/04/20 11:55:06;;;;;;;10.45;7.87;;;;;;;17.62;50.24;96765.25;1833103;77;25717;-81
2021/04/20 11:57:36;;;;;;;10.55;7.72;;;;;;;17.72;49.45;96767.74;1812159;77;25402;-81
2021/04/20 12:00:06;;;;;;;10.18;7.42;;;;;;;17.82;49.23;96763.10;1809536;77;28017;-81
2021/04/20 12:02:36;;;;;;;13.75;8.08;;;;;;;17.53;48.29;96761.94;1813415;77;25365;-81
2021/04/20 12:05:13;;;;;;;11.10;7.42;;;;;;;17.18;48.25;96760.79;1826266;77;25767;-81
2021/04/20 12:07:42;;;;;;;9.75;7.65;;;;;;;17.00;48.02;96753.66;1811908;77;26406;-81
2021/04/20 12:10:19;;;;;;;9.68;7.47;;;;;;;17.02;47.96;96763.76;1806751;77;26368;-81